createdAt,value
2022-11-02T00:02:17.396Z,100.00
2022-11-02T00:04:43.932Z,100.00
2022-11-02T00:07:10.385Z,100.00
2022-11-02T00:09:37.450Z,100.00
2022-11-02T00:12:04.079Z,100.00
2022-11-02T00:14:37.662Z,100.00
2022-11-02T00:17:04.126Z,100.00
2022-11-02T00:19:30.788Z,100.00
2022-11-02T00:21:58.834Z,100.00
2022-11-02T00:24:25.560Z,100.00
2022-11-02T00:26:53.112Z,100.00
2022-11-02T00:29:20.847Z,100.00
2022-11-02T00:31:47.250Z,100.00
2022-11-02T00:34:13.639Z,100.00
2022-11-02T00:36:40.057Z,100.00
2022-11-02T00:39:06.457Z,100.00
2022-11-02T00:41:32.838Z,100.00
2022-11-02T00:43:59.231Z,100.00
2022-11-02T00:46:25.629Z,100.00
2022-11-02T00:48:52.077Z,100.00
2022-11-02T00:51:18.469Z,99.80
2022-11-02T00:53:44.859Z,100.00
2022-11-02T00:56:11.266Z,100.00
2022-11-02T00:58:37.789Z,100.00
2022-11-02T01:01:05.931Z,100.00
2022-11-02T01:03:32.402Z,100.00
2022-11-02T01:05:58.974Z,100.00
2022-11-02T01:08:25.379Z,100.00
2022-11-02T01:10:51.777Z,100.00
2022-11-02T01:13:18.193Z,100.00
2022-11-02T01:15:44.619Z,100.00
2022-11-02T01:18:11.208Z,100.00
2022-11-02T01:20:37.602Z,100.00
2022-11-02T01:23:04.032Z,100.00
2022-11-02T01:25:30.423Z,100.00
2022-11-02T01:27:57.193Z,100.00
2022-11-02T01:30:23.592Z,100.00
2022-11-02T01:32:49.969Z,100.00
2022-11-02T01:35:16.845Z,100.00
2022-11-02T01:37:45.348Z,100.00
2022-11-02T01:40:11.923Z,100.00
2022-11-02T01:42:38.339Z,100.00
2022-11-02T01:45:05.119Z,100.00
2022-11-02T01:47:37.963Z,100.00
2022-11-02T01:50:16.416Z,100.00
2022-11-02T01:52:42.871Z,100.00
2022-11-02T01:55:19.300Z,100.00
2022-11-02T01:57:47.721Z,100.00
2022-11-02T02:00:16.687Z,100.00
2022-11-02T02:02:49.189Z,100.00
2022-11-02T02:05:17.665Z,100.00
2022-11-02T02:07:45.085Z,100.00
2022-11-02T02:10:11.864Z,100.00
2022-11-02T02:12:41.119Z,100.00
2022-11-02T02:15:08.592Z,100.00
2022-11-02T02:17:44.016Z,100.00
2022-11-02T02:20:20.294Z,100.00
2022-11-02T02:23:14.677Z,100.00
2022-11-02T02:25:56.325Z,100.00
2022-11-02T02:28:51.974Z,100.00
2022-11-02T02:31:35.089Z,100.00
2022-11-02T02:34:20.986Z,100.00
2022-11-02T02:36:52.081Z,100.00
2022-11-02T02:39:21.526Z,100.00
2022-11-02T02:42:26.617Z,100.00
2022-11-02T02:45:12.115Z,100.00
2022-11-02T02:47:46.553Z,100.00
2022-11-02T02:50:27.679Z,100.00
2022-11-02T02:52:56.930Z,100.00
2022-11-02T02:55:31.180Z,100.00
2022-11-02T02:58:00.761Z,100.00
2022-11-02T03:00:27.314Z,100.00
2022-11-02T03:03:01.562Z,100.00
2022-11-02T03:05:30.338Z,100.00
2022-11-02T03:08:03.053Z,100.00
2022-11-02T03:10:34.572Z,100.00
2022-11-02T03:13:28.870Z,100.00
2022-11-02T03:16:03.270Z,100.00
2022-11-02T03:18:38.531Z,100.00
2022-11-02T03:21:27.821Z,100.00
2022-11-02T03:24:19.042Z,100.00
2022-11-02T03:26:57.540Z,100.00
2022-11-02T03:29:29.685Z,100.00
2022-11-02T03:32:11.142Z,100.00
2022-11-02T03:34:41.396Z,100.00
2022-11-02T03:37:26.192Z,100.00
2022-11-02T03:39:58.894Z,100.00
2022-11-02T03:42:27.816Z,100.00
2022-11-02T03:44:59.567Z,100.00
2022-11-02T03:47:30.923Z,100.00
2022-11-02T03:50:00.509Z,100.00
2022-11-02T03:52:30.413Z,100.00
2022-11-02T03:55:18.073Z,100.00
2022-11-02T03:57:47.638Z,100.00
2022-11-02T04:00:25.652Z,100.00
2022-11-02T04:02:58.772Z,100.00
2022-11-02T04:05:34.154Z,100.00
2022-11-02T04:08:19.766Z,100.00
2022-11-02T04:11:06.133Z,100.00
2022-11-02T04:13:51.476Z,100.00
2022-11-02T04:16:21.285Z,100.00
2022-11-02T04:19:15.797Z,100.00
2022-11-02T04:22:02.170Z,100.00
2022-11-02T04:24:46.936Z,100.00
2022-11-02T04:27:16.735Z,98.96
2022-11-02T04:29:46.130Z,98.49
2022-11-02T04:32:12.542Z,98.67
2022-11-02T04:34:38.930Z,99.62
2022-11-02T04:37:25.356Z,99.40
2022-11-02T04:39:51.740Z,97.46
2022-11-02T04:42:18.146Z,97.17
2022-11-02T04:44:44.552Z,97.91
2022-11-02T04:47:10.941Z,97.15
2022-11-02T04:49:37.324Z,97.66
2022-11-02T04:52:03.878Z,96.70
2022-11-02T04:54:37.250Z,95.81
2022-11-02T04:57:03.748Z,97.88
2022-11-02T04:59:30.170Z,98.88
2022-11-02T05:01:56.658Z,98.40
2022-11-02T05:04:23.137Z,97.36
2022-11-02T05:06:49.543Z,96.84
2022-11-02T05:09:16.035Z,96.36
2022-11-02T05:11:42.926Z,97.82
2022-11-02T05:14:09.298Z,96.86
2022-11-02T05:16:35.698Z,97.39
2022-11-02T05:19:04.497Z,96.69
2022-11-02T05:21:33.377Z,96.21
2022-11-02T05:23:59.879Z,96.59
2022-11-02T05:26:26.317Z,95.47
2022-11-02T05:28:52.705Z,96.60
2022-11-02T05:31:19.115Z,95.97
2022-11-02T05:33:45.647Z,94.93
2022-11-02T05:36:12.752Z,94.43
2022-11-02T05:41:10.979Z,92.88
2022-11-02T05:43:37.954Z,92.61
2022-11-02T05:46:04.928Z,92.45
2022-11-02T05:48:32.904Z,94.13
2022-11-02T05:51:01.718Z,93.99
2022-11-02T05:53:31.642Z,93.09
2022-11-02T05:55:59.143Z,92.22
2022-11-02T05:58:26.070Z,91.88
2022-11-02T06:00:52.555Z,92.18
2022-11-02T06:03:20.361Z,92.18
2022-11-02T06:05:46.836Z,90.84
2022-11-02T06:08:13.299Z,91.41
2022-11-02T06:10:42.831Z,91.37
2022-11-02T06:13:09.808Z,90.86
2022-11-02T06:15:36.204Z,90.17
2022-11-02T06:18:03.773Z,89.93
2022-11-02T06:20:30.184Z,89.27
2022-11-02T06:22:56.707Z,89.29
2022-11-02T06:25:23.185Z,88.30
2022-11-02T06:27:56.112Z,87.80
2022-11-02T06:30:26.284Z,87.86
2022-11-02T06:32:53.963Z,87.67
2022-11-02T06:35:21.903Z,88.50
2022-11-02T06:37:48.534Z,88.10
2022-11-02T06:40:15.451Z,86.26
2022-11-02T06:42:45.342Z,86.89
2022-11-02T06:45:17.202Z,86.83
2022-11-02T06:47:49.054Z,84.66
2022-11-02T06:50:15.580Z,85.71
2022-11-02T06:52:48.017Z,84.92
2022-11-02T06:55:15.654Z,84.86
2022-11-02T06:57:43.046Z,84.20
2022-11-02T07:00:14.532Z,84.74
2022-11-02T07:02:46.430Z,83.92
2022-11-02T07:05:13.537Z,84.07
2022-11-02T07:07:39.931Z,85.71
2022-11-02T07:10:10.089Z,85.61
2022-11-02T07:12:36.755Z,86.49
2022-11-02T07:15:03.278Z,86.82
2022-11-02T07:17:32.154Z,86.45
2022-11-02T07:19:58.974Z,86.23
2022-11-02T07:22:25.438Z,86.17
2022-11-02T07:24:51.991Z,85.27
2022-11-02T07:27:19.558Z,85.90
2022-11-02T07:29:45.968Z,86.19
2022-11-02T07:32:12.371Z,85.33
2022-11-02T07:34:38.762Z,85.96
2022-11-02T07:37:05.152Z,86.44
2022-11-02T07:39:31.646Z,85.69
2022-11-02T07:41:58.287Z,86.93
2022-11-02T07:44:24.772Z,88.04
2022-11-02T07:46:51.186Z,88.24
2022-11-02T07:49:21.492Z,86.98
2022-11-02T07:51:48.367Z,86.36
2022-11-02T07:54:14.756Z,86.73
2022-11-02T07:56:41.134Z,86.40
2022-11-02T07:59:10.485Z,84.92
2022-11-02T08:01:44.168Z,85.96
2022-11-02T08:04:10.630Z,86.65
2022-11-02T08:06:37.041Z,86.55
2022-11-02T08:09:03.506Z,85.82
2022-11-02T08:11:30.220Z,86.38
2022-11-02T08:13:56.677Z,85.26
2022-11-02T08:16:23.091Z,85.69
2022-11-02T08:18:49.515Z,84.42
2022-11-02T08:21:16.955Z,86.85
2022-11-02T08:23:43.421Z,85.89
2022-11-02T08:26:09.892Z,86.37
2022-11-02T08:28:39.942Z,85.04
2022-11-02T08:31:09.950Z,83.63
2022-11-02T08:33:36.394Z,84.30
2022-11-02T08:36:04.259Z,83.28
2022-11-02T08:38:31.409Z,81.44
2022-11-02T08:40:58.059Z,81.46
2022-11-02T08:43:24.494Z,83.59
2022-11-02T08:48:37.540Z,82.72
2022-11-02T08:51:05.596Z,81.34
2022-11-02T08:53:32.244Z,81.97
2022-11-02T08:55:59.327Z,81.90
2022-11-02T08:58:26.283Z,81.91
2022-11-02T09:00:53.684Z,81.99
2022-11-02T09:03:26.211Z,81.78
2022-11-02T09:05:58.750Z,80.12
2022-11-02T09:08:26.136Z,80.60
2022-11-02T09:10:53.075Z,79.62
2022-11-02T09:13:25.170Z,80.36
2022-11-02T09:15:56.842Z,79.95
2022-11-02T09:18:24.541Z,80.49
2022-11-02T09:20:51.459Z,79.99
2022-11-02T09:23:19.545Z,79.36
2022-11-02T09:25:46.011Z,78.20
2022-11-02T09:28:15.028Z,79.00
2022-11-02T09:30:42.002Z,79.28
2022-11-02T09:33:08.886Z,80.62
2022-11-02T09:35:38.359Z,80.35
2022-11-02T09:38:05.214Z,80.47
2022-11-02T09:40:38.910Z,80.77
2022-11-02T09:43:08.537Z,79.48
2022-11-02T09:45:46.611Z,79.53
2022-11-02T09:48:28.047Z,78.93
2022-11-02T09:51:07.920Z,79.79
2022-11-02T09:54:06.697Z,80.81
2022-11-02T09:56:34.600Z,77.92
2022-11-02T09:59:03.299Z,78.59
2022-11-02T10:01:55.497Z,78.94
2022-11-02T10:04:59.754Z,77.70
2022-11-02T10:07:32.834Z,78.62
2022-11-02T10:10:11.213Z,78.85
2022-11-02T10:12:54.358Z,78.13
2022-11-02T10:15:28.754Z,78.30
2022-11-02T10:17:58.789Z,77.71
2022-11-02T10:20:33.044Z,77.00
2022-11-02T10:23:05.024Z,76.88
2022-11-02T10:25:31.714Z,78.00
2022-11-02T10:28:11.495Z,77.56
2022-11-02T10:30:38.587Z,77.78
2022-11-02T10:33:15.895Z,76.50
2022-11-02T10:38:53.782Z,76.93
2022-11-02T10:41:49.674Z,77.00
2022-11-02T10:44:25.126Z,77.03
2022-11-02T10:47:04.090Z,77.56
2022-11-02T10:49:49.178Z,75.20
2022-11-02T10:52:17.837Z,77.02
2022-11-02T10:54:44.484Z,78.24
2022-11-02T10:57:13.315Z,76.88
2022-11-02T10:59:40.236Z,75.37
2022-11-02T11:02:14.760Z,77.48
2022-11-02T11:04:42.413Z,76.16
2022-11-02T11:07:20.919Z,74.36
2022-11-02T11:09:53.985Z,75.82
2022-11-02T11:12:32.577Z,73.87
2022-11-02T11:20:37.252Z,74.54
2022-11-02T11:23:10.290Z,76.05
2022-11-02T11:25:42.733Z,76.12
2022-11-02T11:28:30.786Z,74.59
2022-11-02T11:31:10.244Z,75.84
2022-11-02T11:33:55.538Z,76.74
2022-11-02T11:36:32.904Z,77.27
2022-11-02T11:39:04.195Z,75.48
2022-11-02T11:41:32.720Z,76.21
2022-11-02T11:44:01.293Z,75.76
2022-11-02T11:46:52.433Z,75.66
2022-11-02T11:50:07.180Z,75.58
2022-11-02T11:52:31.683Z,78.50
2022-11-02T11:55:28.311Z,76.67
2022-11-02T11:58:15.481Z,76.72
2022-11-02T12:00:42.321Z,76.67
2022-11-02T12:03:11.847Z,76.54
2022-11-02T12:06:03.047Z,77.07
2022-11-02T12:08:44.106Z,77.05
2022-11-02T12:11:25.890Z,77.79
2022-11-02T12:14:31.088Z,75.48
2022-11-02T12:17:11.077Z,75.33
2022-11-02T12:20:05.154Z,75.07
2022-11-02T12:22:57.864Z,74.81
2022-11-02T12:25:50.658Z,74.93
2022-11-02T12:28:51.795Z,76.50
2022-11-02T12:31:37.344Z,75.96
2022-11-02T12:34:26.601Z,74.50
2022-11-02T12:37:40.457Z,74.92
2022-11-02T12:40:28.471Z,75.24
2022-11-02T12:43:23.066Z,77.48
2022-11-02T12:46:00.058Z,78.08
2022-11-02T12:49:08.403Z,78.09
2022-11-02T12:51:44.198Z,79.39
2022-11-02T12:54:15.593Z,78.84
2022-11-02T12:56:57.841Z,79.47
2022-11-02T12:59:42.208Z,80.33
2022-11-02T13:02:52.279Z,79.38
2022-11-02T13:05:22.262Z,81.57
2022-11-02T13:07:57.617Z,81.69
2022-11-02T13:10:30.718Z,82.72
2022-11-02T13:12:59.837Z,82.37
2022-11-02T13:15:29.234Z,81.86
2022-11-02T13:18:19.612Z,82.01
2022-11-02T13:20:52.136Z,82.38
2022-11-02T13:23:26.354Z,81.88
2022-11-02T13:25:58.373Z,80.13
2022-11-02T13:28:35.750Z,79.59
2022-11-02T13:31:12.804Z,81.40
2022-11-02T13:33:53.420Z,80.46
2022-11-02T13:36:31.215Z,79.82
2022-11-02T13:39:15.943Z,80.81
2022-11-02T13:42:05.288Z,80.18
2022-11-02T13:45:15.177Z,79.94
2022-11-02T13:47:48.276Z,79.50
2022-11-02T13:50:20.185Z,78.77
2022-11-02T13:52:54.736Z,77.42
2022-11-02T13:55:41.320Z,79.39
2022-11-02T13:58:23.861Z,80.16
2022-11-02T14:00:51.875Z,80.00
2022-11-02T14:03:28.033Z,78.62
2022-11-02T14:06:00.425Z,79.27
2022-11-02T14:08:40.809Z,78.22
2022-11-02T14:11:10.352Z,77.63
2022-11-02T14:13:54.314Z,77.05
2022-11-02T14:16:50.269Z,79.22
2022-11-02T14:19:31.906Z,78.00
2022-11-02T14:22:16.798Z,78.38
2022-11-02T14:24:48.197Z,79.23
2022-11-02T14:27:19.066Z,78.06
2022-11-02T14:29:45.408Z,77.84
2022-11-02T14:32:40.990Z,76.38
2022-11-02T14:35:13.624Z,75.79
2022-11-02T14:38:03.190Z,76.20
2022-11-02T14:40:48.575Z,77.34
2022-11-02T14:43:48.955Z,78.79
2022-11-02T14:46:57.356Z,78.84
2022-11-02T14:49:36.865Z,80.35
2022-11-02T14:52:18.067Z,79.38
2022-11-02T14:54:50.435Z,80.71
2022-11-02T14:57:27.530Z,81.46
2022-11-02T14:59:57.714Z,80.85
2022-11-02T15:02:45.741Z,79.55
2022-11-02T15:05:24.255Z,80.01
2022-11-02T15:08:27.736Z,80.38
2022-11-02T15:10:54.401Z,81.05
2022-11-02T15:13:20.813Z,82.05
2022-11-02T21:05:37.990Z,100.00
2022-11-02T21:08:11.324Z,100.00
2022-11-02T21:10:38.136Z,100.00
2022-11-02T21:13:23.676Z,100.00
2022-11-02T21:15:56.729Z,100.00
2022-11-02T21:18:23.197Z,99.61
2022-11-02T21:20:49.604Z,99.67
2022-11-02T21:23:16.043Z,99.64
2022-11-02T21:25:42.452Z,99.83
2022-11-02T21:31:08.845Z,99.46
2022-11-02T21:33:35.573Z,99.53
2022-11-02T21:36:02.211Z,99.57
2022-11-02T21:38:29.411Z,98.69
2022-11-02T21:40:59.429Z,97.88
2022-11-02T21:43:26.613Z,97.49
2022-11-02T21:46:01.280Z,97.42
2022-11-02T21:48:31.684Z,97.92
2022-11-02T21:51:05.879Z,98.93
2022-11-02T21:53:33.862Z,98.69
2022-11-02T21:56:10.998Z,98.90
2022-11-02T21:58:43.031Z,98.96
2022-11-02T22:01:34.655Z,99.29
2022-11-02T22:04:01.658Z,99.21
2022-11-02T22:06:31.340Z,99.12
2022-11-02T22:08:59.142Z,98.29
2022-11-02T22:11:28.866Z,97.89
2022-11-02T22:13:58.006Z,98.06
2022-11-02T22:16:25.979Z,98.31
2022-11-02T22:18:55.246Z,98.79
2022-11-02T22:21:29.568Z,99.76
2022-11-02T22:23:56.603Z,99.11
2022-11-02T22:26:30.224Z,98.18
2022-11-02T22:28:57.984Z,97.56
2022-11-02T22:31:27.198Z,97.53
2022-11-02T22:33:55.741Z,98.35
2022-11-02T22:36:25.098Z,98.98
2022-11-02T22:38:53.592Z,98.83
2022-11-02T22:41:31.484Z,99.17
2022-11-02T22:44:03.695Z,100.00
2022-11-02T22:46:32.011Z,100.00
2022-11-02T22:49:00.135Z,99.96
2022-11-02T22:51:28.296Z,99.83
2022-11-02T22:53:55.143Z,100.00
2022-11-02T22:56:22.987Z,100.00
2022-11-02T22:58:50.265Z,100.00
2022-11-02T23:01:19.121Z,99.81
2022-11-02T23:03:46.893Z,100.00
2022-11-02T23:06:14.225Z,99.40
2022-11-02T23:08:43.101Z,99.21
2022-11-02T23:11:22.716Z,99.32
2022-11-02T23:14:01.292Z,99.57
2022-11-02T23:16:40.811Z,100.00
2022-11-02T23:19:29.636Z,100.00
2022-11-02T23:22:22.797Z,100.00
2022-11-02T23:25:09.254Z,100.00
2022-11-02T23:27:59.971Z,100.00
2022-11-02T23:30:48.438Z,100.00
2022-11-02T23:33:15.525Z,100.00
2022-11-02T23:36:01.101Z,100.00
2022-11-02T23:38:45.739Z,100.00
2022-11-02T23:41:12.152Z,100.00
2022-11-02T23:43:38.536Z,100.00
2022-11-02T23:46:05.125Z,100.00
2022-11-02T23:48:31.557Z,100.00
2022-11-02T23:51:16.517Z,100.00
2022-11-02T23:54:01.418Z,100.00
2022-11-02T23:56:43.210Z,100.00
2022-11-02T23:59:10.666Z,100.00
